RJCC/CTS METAR and TAF weather

Enter ICAO airport designator
Station Type Date Time Source
RJCC METAR 2022/12/04 10:30 UTC NOAA

RJCC 041030Z 30007KT 260V330 9999 FEW008 SCT050 BKN080 M06/M11 Q1020


Station Type Date Time Source
RJCC Decoded METAR 2022/12/04 10:30 UTC NOAA

Chitose Ab, Japan (RJCC) 42-48N 141-40E 30M
Dec 04, 2022 - 05:30 AM EST / 2022.12.04 1030 UTC
Wind: from the WNW (300 degrees) at 8 MPH (7 KT) (direction variable):0
Visibility: greater than 7 mile(s):0
Sky conditions: mostly cloudy
Temperature: 21 F (-6 C)
Windchill: 12 F (-11 C):1
Dew Point: 12 F (-11 C)
Relative Humidity: 67%
Pressure (altimeter): 30.12 in. Hg (1020 hPa)
ob: RJCC 041030Z 30007KT 260V330 9999 FEW008 SCT050 BKN080 M06/M11 Q1020
cycle: 10

Station Type Date Time Source
RJCC TAF 2022/12/04 06:36 UTC NOAA

TAF RJCC 040505Z 0406/0512 32012KT 9999 FEW008 BKN015
TEMPO 0406/0409 3000 -SHSN
BECMG 0412/0414 22005KT
BECMG 0500/0503 31008KT
BECMG 0506/0509 18006KT

Example: see airport list